sensor_id;sensor_type;location;lat;lon;timestamp;temperature;humidity
36850;DHT22;22783;51.034;3.726;2022-07-23T00:00:18;17.60;99.10
36850;DHT22;22783;51.034;3.726;2022-07-23T00:02:43;17.50;99.10
36850;DHT22;22783;51.034;3.726;2022-07-23T00:05:10;17.60;99.00
36850;DHT22;22783;51.034;3.726;2022-07-23T00:07:36;17.60;98.90
36850;DHT22;22783;51.034;3.726;2022-07-23T00:10:03;17.50;99.00
36850;DHT22;22783;51.034;3.726;2022-07-23T00:12:28;17.50;98.90
36850;DHT22;22783;51.034;3.726;2022-07-23T00:14:54;17.60;98.90
36850;DHT22;22783;51.034;3.726;2022-07-23T00:17:20;17.50;99.00
36850;DHT22;22783;51.034;3.726;2022-07-23T00:19:45;17.50;99.00
36850;DHT22;22783;51.034;3.726;2022-07-23T00:22:11;17.50;98.90
36850;DHT22;22783;51.034;3.726;2022-07-23T00:24:37;17.40;99.00
36850;DHT22;22783;51.034;3.726;2022-07-23T00:27:03;17.50;99.00
36850;DHT22;22783;51.034;3.726;2022-07-23T00:29:29;17.40;99.10
36850;DHT22;22783;51.034;3.726;2022-07-23T00:31:54;17.40;99.30
36850;DHT22;22783;51.034;3.726;2022-07-23T00:34:20;17.30;99.20
36850;DHT22;22783;51.034;3.726;2022-07-23T00:36:46;17.30;99.30
36850;DHT22;22783;51.034;3.726;2022-07-23T00:39:11;17.20;99.50
36850;DHT22;22783;51.034;3.726;2022-07-23T00:41:37;17.20;99.60
36850;DHT22;22783;51.034;3.726;2022-07-23T00:46:53;17.10;99.80
36850;DHT22;22783;51.034;3.726;2022-07-23T00:49:27;17.20;99.70
36850;DHT22;22783;51.034;3.726;2022-07-23T00:51:55;17.10;99.90
36850;DHT22;22783;51.034;3.726;2022-07-23T00:54:25;17.10;99.90
36850;DHT22;22783;51.034;3.726;2022-07-23T00:56:51;17.00;99.90
36850;DHT22;22783;51.034;3.726;2022-07-23T00:59:17;17.00;99.90
36850;DHT22;22783;51.034;3.726;2022-07-23T01:01:43;17.00;99.90
36850;DHT22;22783;51.034;3.726;2022-07-23T01:04:10;17.00;99.90
36850;DHT22;22783;51.034;3.726;2022-07-23T01:06:38;16.90;99.90
36850;DHT22;22783;51.034;3.726;2022-07-23T01:09:06;16.90;99.90
36850;DHT22;22783;51.034;3.726;2022-07-23T01:11:34;16.90;99.90
36850;DHT22;22783;51.034;3.726;2022-07-23T01:14:08;16.90;99.90
36850;DHT22;22783;51.034;3.726;2022-07-23T01:16:33;16.80;99.90
36850;DHT22;22783;51.034;3.726;2022-07-23T01:18:59;16.80;99.90
36850;DHT22;22783;51.034;3.726;2022-07-23T01:21:25;16.80;99.90
36850;DHT22;22783;51.034;3.726;2022-07-23T01:23:51;16.80;99.90
36850;DHT22;22783;51.034;3.726;2022-07-23T01:26:16;16.80;99.90
36850;DHT22;22783;51.034;3.726;2022-07-23T01:28:43;16.70;99.90
36850;DHT22;22783;51.034;3.726;2022-07-23T01:31:09;16.70;99.90
36850;DHT22;22783;51.034;3.726;2022-07-23T01:33:34;16.80;99.90
36850;DHT22;22783;51.034;3.726;2022-07-23T01:36:00;16.80;99.90
36850;DHT22;22783;51.034;3.726;2022-07-23T01:38:26;16.80;99.90
36850;DHT22;22783;51.034;3.726;2022-07-23T01:40:51;16.80;99.90
36850;DHT22;22783;51.034;3.726;2022-07-23T01:43:17;16.80;99.90
36850;DHT22;22783;51.034;3.726;2022-07-23T01:45:43;16.80;99.90
36850;DHT22;22783;51.034;3.726;2022-07-23T01:48:09;16.70;99.90
36850;DHT22;22783;51.034;3.726;2022-07-23T01:50:35;16.70;99.90
36850;DHT22;22783;51.034;3.726;2022-07-23T01:53:01;16.70;99.90
36850;DHT22;22783;51.034;3.726;2022-07-23T01:55:27;16.70;99.90
36850;DHT22;22783;51.034;3.726;2022-07-23T01:57:52;16.60;99.90
36850;DHT22;22783;51.034;3.726;2022-07-23T02:00:18;16.70;99.90
36850;DHT22;22783;51.034;3.726;2022-07-23T02:02:44;16.70;99.90
36850;DHT22;22783;51.034;3.726;2022-07-23T02:05:09;16.70;99.90
36850;DHT22;22783;51.034;3.726;2022-07-23T02:07:35;16.70;99.90
36850;DHT22;22783;51.034;3.726;2022-07-23T02:10:01;16.70;99.90
36850;DHT22;22783;51.034;3.726;2022-07-23T02:12:27;16.60;99.90
36850;DHT22;22783;51.034;3.726;2022-07-23T02:14:52;16.60;99.90
36850;DHT22;22783;51.034;3.726;2022-07-23T02:17:18;16.60;99.90
36850;DHT22;22783;51.034;3.726;2022-07-23T02:19:43;16.60;99.90
36850;DHT22;22783;51.034;3.726;2022-07-23T02:22:09;16.60;99.90
36850;DHT22;22783;51.034;3.726;2022-07-23T02:24:35;16.60;99.90
36850;DHT22;22783;51.034;3.726;2022-07-23T02:27:00;16.60;99.90
36850;DHT22;22783;51.034;3.726;2022-07-23T02:29:26;16.60;99.90
36850;DHT22;22783;51.034;3.726;2022-07-23T02:31:52;16.60;99.90
36850;DHT22;22783;51.034;3.726;2022-07-23T02:34:17;16.60;99.90
36850;DHT22;22783;51.034;3.726;2022-07-23T02:36:43;16.70;99.90
36850;DHT22;22783;51.034;3.726;2022-07-23T02:39:10;16.80;99.90
36850;DHT22;22783;51.034;3.726;2022-07-23T02:41:35;16.80;99.90
36850;DHT22;22783;51.034;3.726;2022-07-23T02:44:01;16.80;99.90
36850;DHT22;22783;51.034;3.726;2022-07-23T02:46:27;16.80;99.90
36850;DHT22;22783;51.034;3.726;2022-07-23T02:48:53;16.80;99.90
36850;DHT22;22783;51.034;3.726;2022-07-23T02:51:19;16.70;99.90
36850;DHT22;22783;51.034;3.726;2022-07-23T02:53:44;16.70;99.90
36850;DHT22;22783;51.034;3.726;2022-07-23T02:56:12;16.70;99.90
36850;DHT22;22783;51.034;3.726;2022-07-23T02:58:38;16.60;99.90
36850;DHT22;22783;51.034;3.726;2022-07-23T03:01:05;16.70;99.90
36850;DHT22;22783;51.034;3.726;2022-07-23T03:03:30;16.70;99.90
36850;DHT22;22783;51.034;3.726;2022-07-23T03:05:56;16.70;99.90
36850;DHT22;22783;51.034;3.726;2022-07-23T03:08:22;16.80;99.90
36850;DHT22;22783;51.034;3.726;2022-07-23T03:10:48;16.70;99.90
36850;DHT22;22783;51.034;3.726;2022-07-23T03:13:13;16.60;99.90
36850;DHT22;22783;51.034;3.726;2022-07-23T03:15:39;16.60;99.90
36850;DHT22;22783;51.034;3.726;2022-07-23T03:18:05;16.60;99.90
36850;DHT22;22783;51.034;3.726;2022-07-23T03:20:30;16.60;99.90
36850;DHT22;22783;51.034;3.726;2022-07-23T03:22:56;16.60;99.90
36850;DHT22;22783;51.034;3.726;2022-07-23T03:25:22;16.50;99.90
36850;DHT22;22783;51.034;3.726;2022-07-23T03:27:48;16.50;99.90
36850;DHT22;22783;51.034;3.726;2022-07-23T03:30:13;16.50;99.90
36850;DHT22;22783;51.034;3.726;2022-07-23T03:32:39;16.50;99.90
36850;DHT22;22783;51.034;3.726;2022-07-23T03:35:05;16.50;99.90
36850;DHT22;22783;51.034;3.726;2022-07-23T03:37:31;16.50;99.90
36850;DHT22;22783;51.034;3.726;2022-07-23T03:39:56;16.50;99.90
36850;DHT22;22783;51.034;3.726;2022-07-23T03:42:22;16.50;99.90
36850;DHT22;22783;51.034;3.726;2022-07-23T03:44:48;16.50;99.90
36850;DHT22;22783;51.034;3.726;2022-07-23T03:47:14;16.50;99.90
36850;DHT22;22783;51.034;3.726;2022-07-23T03:49:42;16.40;99.90
36850;DHT22;22783;51.034;3.726;2022-07-23T03:52:08;16.40;99.90
36850;DHT22;22783;51.034;3.726;2022-07-23T03:54:34;16.40;99.90
36850;DHT22;22783;51.034;3.726;2022-07-23T03:56:59;16.40;99.90
36850;DHT22;22783;51.034;3.726;2022-07-23T03:59:25;16.40;99.90
36850;DHT22;22783;51.034;3.726;2022-07-23T04:01:51;16.40;99.90
36850;DHT22;22783;51.034;3.726;2022-07-23T04:04:17;16.50;99.90
36850;DHT22;22783;51.034;3.726;2022-07-23T04:06:43;16.60;99.90
36850;DHT22;22783;51.034;3.726;2022-07-23T04:09:08;16.70;99.90
36850;DHT22;22783;51.034;3.726;2022-07-23T04:11:34;16.70;99.90
36850;DHT22;22783;51.034;3.726;2022-07-23T04:14:00;16.70;99.90
36850;DHT22;22783;51.034;3.726;2022-07-23T04:16:25;16.70;99.90
36850;DHT22;22783;51.034;3.726;2022-07-23T04:18:51;16.70;99.90
36850;DHT22;22783;51.034;3.726;2022-07-23T04:21:17;16.60;99.90
36850;DHT22;22783;51.034;3.726;2022-07-23T04:23:42;16.60;99.90
36850;DHT22;22783;51.034;3.726;2022-07-23T04:26:08;16.60;99.90
36850;DHT22;22783;51.034;3.726;2022-07-23T04:28:34;16.70;99.90
36850;DHT22;22783;51.034;3.726;2022-07-23T04:30:59;16.80;99.90
36850;DHT22;22783;51.034;3.726;2022-07-23T04:33:25;16.70;99.90
36850;DHT22;22783;51.034;3.726;2022-07-23T04:35:51;16.90;99.90
36850;DHT22;22783;51.034;3.726;2022-07-23T04:38:16;16.90;99.90
36850;DHT22;22783;51.034;3.726;2022-07-23T04:40:42;16.90;99.90
36850;DHT22;22783;51.034;3.726;2022-07-23T04:43:08;16.90;99.90
36850;DHT22;22783;51.034;3.726;2022-07-23T04:45:33;17.00;99.90
36850;DHT22;22783;51.034;3.726;2022-07-23T04:47:59;17.10;99.90
36850;DHT22;22783;51.034;3.726;2022-07-23T04:50:25;17.10;99.90
36850;DHT22;22783;51.034;3.726;2022-07-23T04:52:50;17.10;99.90
36850;DHT22;22783;51.034;3.726;2022-07-23T04:55:16;17.30;99.70
36850;DHT22;22783;51.034;3.726;2022-07-23T04:57:42;17.30;99.50
36850;DHT22;22783;51.034;3.726;2022-07-23T05:00:08;17.20;99.70
36850;DHT22;22783;51.034;3.726;2022-07-23T05:02:34;17.30;99.70
36850;DHT22;22783;51.034;3.726;2022-07-23T05:05:00;17.40;99.50
36850;DHT22;22783;51.034;3.726;2022-07-23T05:10:48;17.60;98.90
36850;DHT22;22783;51.034;3.726;2022-07-23T05:13:17;17.50;99.00
36850;DHT22;22783;51.034;3.726;2022-07-23T05:15:44;17.60;99.10
36850;DHT22;22783;51.034;3.726;2022-07-23T05:18:12;17.70;98.90
36850;DHT22;22783;51.034;3.726;2022-07-23T05:20:41;17.60;98.90
36850;DHT22;22783;51.034;3.726;2022-07-23T05:23:07;17.60;99.00
36850;DHT22;22783;51.034;3.726;2022-07-23T05:25:33;17.60;98.90
36850;DHT22;22783;51.034;3.726;2022-07-23T05:31:20;17.60;98.80
36850;DHT22;22783;51.034;3.726;2022-07-23T05:37:09;17.80;98.50
36850;DHT22;22783;51.034;3.726;2022-07-23T05:39:59;17.80;98.40
36850;DHT22;22783;51.034;3.726;2022-07-23T05:42:25;17.90;98.10
36850;DHT22;22783;51.034;3.726;2022-07-23T05:44:50;18.10;97.80
36850;DHT22;22783;51.034;3.726;2022-07-23T05:47:17;18.20;98.10
36850;DHT22;22783;51.034;3.726;2022-07-23T05:50:04;18.30;97.80
36850;DHT22;22783;51.034;3.726;2022-07-23T05:52:29;18.60;97.00
36850;DHT22;22783;51.034;3.726;2022-07-23T05:54:55;18.50;97.00
36850;DHT22;22783;51.034;3.726;2022-07-23T05:57:25;18.70;97.10
36850;DHT22;22783;51.034;3.726;2022-07-23T06:03:14;18.90;96.00
36850;DHT22;22783;51.034;3.726;2022-07-23T06:08:44;18.90;96.20
36850;DHT22;22783;51.034;3.726;2022-07-23T06:11:10;19.10;95.90
36850;DHT22;22783;51.034;3.726;2022-07-23T07:26:35;33.10;53.40
36850;DHT22;22783;51.034;3.726;2022-07-23T07:29:01;32.80;51.70
36850;DHT22;22783;51.034;3.726;2022-07-23T07:31:26;32.80;52.20
36850;DHT22;22783;51.034;3.726;2022-07-23T07:33:52;34.10;50.50
36850;DHT22;22783;51.034;3.726;2022-07-23T07:36:18;34.90;47.90
36850;DHT22;22783;51.034;3.726;2022-07-23T07:38:44;34.80;48.10
36850;DHT22;22783;51.034;3.726;2022-07-23T07:41:09;34.90;47.70
36850;DHT22;22783;51.034;3.726;2022-07-23T07:43:36;34.90;47.70
36850;DHT22;22783;51.034;3.726;2022-07-23T07:46:03;34.60;47.10
36850;DHT22;22783;51.034;3.726;2022-07-23T07:48:29;33.60;48.80
36850;DHT22;22783;51.034;3.726;2022-07-23T07:50:54;34.40;47.50
36850;DHT22;22783;51.034;3.726;2022-07-23T07:53:20;34.60;47.20
36850;DHT22;22783;51.034;3.726;2022-07-23T07:55:46;35.30;45.80
36850;DHT22;22783;51.034;3.726;2022-07-23T07:58:12;34.70;46.70
36850;DHT22;22783;51.034;3.726;2022-07-23T08:00:38;34.20;46.70
36850;DHT22;22783;51.034;3.726;2022-07-23T08:03:03;33.10;47.40
36850;DHT22;22783;51.034;3.726;2022-07-23T08:05:30;32.40;48.40
36850;DHT22;22783;51.034;3.726;2022-07-23T08:08:27;31.70;48.60
36850;DHT22;22783;51.034;3.726;2022-07-23T08:14:39;30.10;52.00
36850;DHT22;22783;51.034;3.726;2022-07-23T08:24:15;28.00;55.20
36850;DHT22;22783;51.034;3.726;2022-07-23T08:30:22;27.90;55.60
36850;DHT22;22783;51.034;3.726;2022-07-23T08:36:49;28.20;56.00
36850;DHT22;22783;51.034;3.726;2022-07-23T08:46:01;34.10;46.70
36850;DHT22;22783;51.034;3.726;2022-07-23T08:48:30;35.20;43.90
36850;DHT22;22783;51.034;3.726;2022-07-23T08:50:58;34.70;43.40
36850;DHT22;22783;51.034;3.726;2022-07-23T08:53:25;33.70;44.10
36850;DHT22;22783;51.034;3.726;2022-07-23T08:55:53;32.80;45.80
36850;DHT22;22783;51.034;3.726;2022-07-23T08:58:20;32.50;46.40
36850;DHT22;22783;51.034;3.726;2022-07-23T09:01:14;32.20;47.20
36850;DHT22;22783;51.034;3.726;2022-07-23T09:10:28;33.40;45.80
36850;DHT22;22783;51.034;3.726;2022-07-23T09:12:54;34.20;43.20
36850;DHT22;22783;51.034;3.726;2022-07-23T09:21:22;34.80;42.00
36850;DHT22;22783;51.034;3.726;2022-07-23T09:23:53;35.30;41.70
36850;DHT22;22783;51.034;3.726;2022-07-23T09:26:32;37.00;39.50
36850;DHT22;22783;51.034;3.726;2022-07-23T09:31:47;38.50;36.30
36850;DHT22;22783;51.034;3.726;2022-07-23T09:37:12;38.00;36.30
36850;DHT22;22783;51.034;3.726;2022-07-23T09:39:42;36.40;36.50
36850;DHT22;22783;51.034;3.726;2022-07-23T09:42:20;36.50;37.70
36850;DHT22;22783;51.034;3.726;2022-07-23T09:44:48;37.00;37.50
36850;DHT22;22783;51.034;3.726;2022-07-23T09:47:15;37.10;37.20
36850;DHT22;22783;51.034;3.726;2022-07-23T09:50:01;37.00;37.10
36850;DHT22;22783;51.034;3.726;2022-07-23T09:52:28;36.00;38.40
36850;DHT22;22783;51.034;3.726;2022-07-23T09:54:59;35.20;39.30
36850;DHT22;22783;51.034;3.726;2022-07-23T09:57:26;33.70;40.60
36850;DHT22;22783;51.034;3.726;2022-07-23T09:59:52;33.40;41.40
36850;DHT22;22783;51.034;3.726;2022-07-23T10:02:18;34.20;40.40
36850;DHT22;22783;51.034;3.726;2022-07-23T10:04:44;35.20;39.30
36850;DHT22;22783;51.034;3.726;2022-07-23T10:07:10;35.80;38.20
36850;DHT22;22783;51.034;3.726;2022-07-23T10:09:39;36.10;37.70
36850;DHT22;22783;51.034;3.726;2022-07-23T10:12:12;35.40;38.50
36850;DHT22;22783;51.034;3.726;2022-07-23T10:14:39;36.70;38.20
36850;DHT22;22783;51.034;3.726;2022-07-23T10:17:06;38.30;36.50
36850;DHT22;22783;51.034;3.726;2022-07-23T10:19:32;39.10;36.00
36850;DHT22;22783;51.034;3.726;2022-07-23T10:22:04;39.90;35.10
36850;DHT22;22783;51.034;3.726;2022-07-23T10:25:00;39.80;34.90
36850;DHT22;22783;51.034;3.726;2022-07-23T10:30:25;38.50;35.40
36850;DHT22;22783;51.034;3.726;2022-07-23T10:38:30;36.20;37.10
36850;DHT22;22783;51.034;3.726;2022-07-23T10:41:02;34.00;39.80
36850;DHT22;22783;51.034;3.726;2022-07-23T10:43:28;33.50;40.00
36850;DHT22;22783;51.034;3.726;2022-07-23T10:45:55;34.30;39.80
36850;DHT22;22783;51.034;3.726;2022-07-23T10:48:25;34.00;39.60
36850;DHT22;22783;51.034;3.726;2022-07-23T10:51:08;33.80;40.40
36850;DHT22;22783;51.034;3.726;2022-07-23T10:56:50;36.10;37.70
36850;DHT22;22783;51.034;3.726;2022-07-23T10:59:16;36.10;37.30
36850;DHT22;22783;51.034;3.726;2022-07-23T11:01:41;36.20;37.50
36850;DHT22;22783;51.034;3.726;2022-07-23T11:04:07;36.40;37.00
36850;DHT22;22783;51.034;3.726;2022-07-23T11:09:24;35.80;37.40
36850;DHT22;22783;51.034;3.726;2022-07-23T11:24:12;31.80;42.60
36850;DHT22;22783;51.034;3.726;2022-07-23T11:26:55;33.00;40.30
36850;DHT22;22783;51.034;3.726;2022-07-23T11:32:00;33.30;40.10
36850;DHT22;22783;51.034;3.726;2022-07-23T11:34:38;33.30;40.20
36850;DHT22;22783;51.034;3.726;2022-07-23T11:37:07;33.30;40.00
36850;DHT22;22783;51.034;3.726;2022-07-23T11:39:33;33.30;39.80
36850;DHT22;22783;51.034;3.726;2022-07-23T11:42:00;32.50;40.80
36850;DHT22;22783;51.034;3.726;2022-07-23T11:44:34;32.50;41.00
36850;DHT22;22783;51.034;3.726;2022-07-23T11:47:05;32.50;41.30
36850;DHT22;22783;51.034;3.726;2022-07-23T11:49:32;32.20;41.40
36850;DHT22;22783;51.034;3.726;2022-07-23T11:52:12;32.10;41.60
36850;DHT22;22783;51.034;3.726;2022-07-23T11:57:19;32.30;41.70
36850;DHT22;22783;51.034;3.726;2022-07-23T11:59:52;31.60;42.40
36850;DHT22;22783;51.034;3.726;2022-07-23T12:22:08;29.90;46.70
36850;DHT22;22783;51.034;3.726;2022-07-23T12:28:32;29.00;48.30
36850;DHT22;22783;51.034;3.726;2022-07-23T12:34:23;29.40;48.00
36850;DHT22;22783;51.034;3.726;2022-07-23T12:40:32;29.90;47.70
36850;DHT22;22783;51.034;3.726;2022-07-23T12:46:16;30.20;47.20
36850;DHT22;22783;51.034;3.726;2022-07-23T12:52:15;30.20;47.20
36850;DHT22;22783;51.034;3.726;2022-07-23T12:54:42;30.20;47.20
36850;DHT22;22783;51.034;3.726;2022-07-23T12:57:08;30.10;47.20
36850;DHT22;22783;51.034;3.726;2022-07-23T12:59:34;30.00;47.20
36850;DHT22;22783;51.034;3.726;2022-07-23T13:02:21;29.60;47.80
36850;DHT22;22783;51.034;3.726;2022-07-23T13:04:48;29.30;48.20
36850;DHT22;22783;51.034;3.726;2022-07-23T13:07:14;29.60;48.30
36850;DHT22;22783;51.034;3.726;2022-07-23T13:09:40;29.80;47.80
36850;DHT22;22783;51.034;3.726;2022-07-23T13:12:05;30.00;47.70
36850;DHT22;22783;51.034;3.726;2022-07-23T13:14:37;30.00;47.60
36850;DHT22;22783;51.034;3.726;2022-07-23T13:30:22;29.40;48.70
36850;DHT22;22783;51.034;3.726;2022-07-23T13:36:25;29.90;48.20
36850;DHT22;22783;51.034;3.726;2022-07-23T13:38:51;29.80;48.20
36850;DHT22;22783;51.034;3.726;2022-07-23T13:41:17;29.40;48.70
36850;DHT22;22783;51.034;3.726;2022-07-23T13:43:43;28.90;49.30
36850;DHT22;22783;51.034;3.726;2022-07-23T13:46:09;28.90;49.80
36850;DHT22;22783;51.034;3.726;2022-07-23T13:48:47;28.50;50.70
36850;DHT22;22783;51.034;3.726;2022-07-23T13:51:32;28.80;50.20
36850;DHT22;22783;51.034;3.726;2022-07-23T13:53:57;28.60;50.60
36850;DHT22;22783;51.034;3.726;2022-07-23T13:56:24;28.90;50.40
36850;DHT22;22783;51.034;3.726;2022-07-23T14:02:22;29.30;49.30
36850;DHT22;22783;51.034;3.726;2022-07-23T14:04:48;29.50;49.00
36850;DHT22;22783;51.034;3.726;2022-07-23T14:07:16;29.30;49.20
36850;DHT22;22783;51.034;3.726;2022-07-23T14:09:47;29.50;49.60
36850;DHT22;22783;51.034;3.726;2022-07-23T14:15:53;29.70;49.00
36850;DHT22;22783;51.034;3.726;2022-07-23T14:21:47;29.70;48.80
36850;DHT22;22783;51.034;3.726;2022-07-23T14:29:48;30.00;48.60
36850;DHT22;22783;51.034;3.726;2022-07-23T14:32:14;30.00;48.50
36850;DHT22;22783;51.034;3.726;2022-07-23T14:34:40;30.20;48.50
36850;DHT22;22783;51.034;3.726;2022-07-23T14:37:09;30.30;48.20
36850;DHT22;22783;51.034;3.726;2022-07-23T14:46:25;30.70;47.40
36850;DHT22;22783;51.034;3.726;2022-07-23T14:48:51;30.80;47.40
36850;DHT22;22783;51.034;3.726;2022-07-23T14:55:20;30.70;47.40
36850;DHT22;22783;51.034;3.726;2022-07-23T15:04:46;30.20;47.90
36850;DHT22;22783;51.034;3.726;2022-07-23T15:10:42;30.60;47.70
36850;DHT22;22783;51.034;3.726;2022-07-23T15:13:08;30.40;48.00
36850;DHT22;22783;51.034;3.726;2022-07-23T15:15:34;30.70;47.80
36850;DHT22;22783;51.034;3.726;2022-07-23T15:17:59;30.60;47.40
36850;DHT22;22783;51.034;3.726;2022-07-23T15:20:49;30.50;47.90
36850;DHT22;22783;51.034;3.726;2022-07-23T15:26:50;30.80;47.60
36850;DHT22;22783;51.034;3.726;2022-07-23T15:31:41;30.60;48.20
36850;DHT22;22783;51.034;3.726;2022-07-23T15:34:35;30.70;47.90
36850;DHT22;22783;51.034;3.726;2022-07-23T15:40:31;30.50;47.90
36850;DHT22;22783;51.034;3.726;2022-07-23T15:42:59;30.20;48.60
36850;DHT22;22783;51.034;3.726;2022-07-23T15:45:25;30.20;48.80
36850;DHT22;22783;51.034;3.726;2022-07-23T15:47:51;30.20;48.60
36850;DHT22;22783;51.034;3.726;2022-07-23T15:50:27;30.20;48.50
36850;DHT22;22783;51.034;3.726;2022-07-23T15:56:31;30.00;48.80
36850;DHT22;22783;51.034;3.726;2022-07-23T16:02:50;30.40;48.60
36850;DHT22;22783;51.034;3.726;2022-07-23T16:08:42;30.60;48.40
36850;DHT22;22783;51.034;3.726;2022-07-23T16:14:40;30.70;48.00
36850;DHT22;22783;51.034;3.726;2022-07-23T16:17:05;30.60;46.80
36850;DHT22;22783;51.034;3.726;2022-07-23T16:19:31;30.70;47.40
36850;DHT22;22783;51.034;3.726;2022-07-23T16:21:57;30.60;47.80
36850;DHT22;22783;51.034;3.726;2022-07-23T16:30:41;30.40;48.00
36850;DHT22;22783;51.034;3.726;2022-07-23T16:36:52;30.20;48.20
36850;DHT22;22783;51.034;3.726;2022-07-23T16:39:17;30.10;48.70
36850;DHT22;22783;51.034;3.726;2022-07-23T16:41:43;29.90;48.80
36850;DHT22;22783;51.034;3.726;2022-07-23T16:44:09;29.70;49.00
36850;DHT22;22783;51.034;3.726;2022-07-23T16:50:09;29.60;49.00
36850;DHT22;22783;51.034;3.726;2022-07-23T16:56:33;29.50;50.00
36850;DHT22;22783;51.034;3.726;2022-07-23T19:09:49;24.70;69.20
36850;DHT22;22783;51.034;3.726;2022-07-23T19:29:20;24.40;70.20
36850;DHT22;22783;51.034;3.726;2022-07-23T19:35:10;24.30;71.10
36850;DHT22;22783;51.034;3.726;2022-07-23T19:41:12;24.10;71.80
36850;DHT22;22783;51.034;3.726;2022-07-23T20:00:47;23.70;73.90
36850;DHT22;22783;51.034;3.726;2022-07-23T20:06:44;23.60;74.70
36850;DHT22;22783;51.034;3.726;2022-07-23T21:29:39;23.20;81.80
36850;DHT22;22783;51.034;3.726;2022-07-23T21:35:10;23.10;82.60
36850;DHT22;22783;51.034;3.726;2022-07-23T21:37:36;23.10;82.50
36850;DHT22;22783;51.034;3.726;2022-07-23T21:40:07;23.10;82.90
36850;DHT22;22783;51.034;3.726;2022-07-23T21:52:38;23.00;83.60
36850;DHT22;22783;51.034;3.726;2022-07-23T22:01:53;23.00;84.00
36850;DHT22;22783;51.034;3.726;2022-07-23T22:07:42;22.90;84.80
36850;DHT22;22783;51.034;3.726;2022-07-23T22:10:11;22.80;85.30
36850;DHT22;22783;51.034;3.726;2022-07-23T22:12:37;22.70;85.50
36850;DHT22;22783;51.034;3.726;2022-07-23T22:15:05;22.70;85.50
36850;DHT22;22783;51.034;3.726;2022-07-23T22:21:07;22.70;85.90
36850;DHT22;22783;51.034;3.726;2022-07-23T22:23:35;22.70;86.10
36850;DHT22;22783;51.034;3.726;2022-07-23T22:26:01;22.70;86.10
